createdAt,value
2018-01-27T00:00:46.239Z,7.20
2018-01-27T00:03:13.759Z,7.20
2018-01-27T00:05:41.296Z,7.10
2018-01-27T00:08:08.821Z,7.10
2018-01-27T00:10:36.400Z,7.10
2018-01-27T00:13:03.947Z,7.10
2018-01-27T00:15:32.847Z,7.10
2018-01-27T00:18:01.191Z,7.10
2018-01-27T00:20:28.724Z,7.10
2018-01-27T00:22:56.256Z,7.10
2018-01-27T00:25:23.770Z,7.10
2018-01-27T00:27:52.077Z,7.00
2018-01-27T00:30:19.601Z,7.00
2018-01-27T00:32:47.166Z,7.00
2018-01-27T00:35:14.685Z,7.00
2018-01-27T00:37:42.219Z,7.10
2018-01-27T00:40:09.744Z,7.00
2018-01-27T00:42:38.040Z,7.00
2018-01-27T00:45:05.577Z,7.00
2018-01-27T00:47:33.278Z,7.00
2018-01-27T00:50:01.174Z,7.00
2018-01-27T00:52:29.494Z,6.90
2018-01-27T00:54:57.062Z,6.90
2018-01-27T00:57:25.351Z,7.00
2018-01-27T00:59:52.886Z,6.90
2018-01-27T01:02:20.412Z,6.90
2018-01-27T01:04:48.715Z,6.90
2018-01-27T01:07:16.348Z,6.90
2018-01-27T01:09:43.923Z,6.90
2018-01-27T01:12:11.439Z,6.90
2018-01-27T01:14:38.985Z,6.90
2018-01-27T01:17:06.689Z,6.90
2018-01-27T01:19:34.289Z,6.80
2018-01-27T01:22:01.873Z,6.90
2018-01-27T01:24:29.474Z,6.90
2018-01-27T01:26:57.853Z,6.80
2018-01-27T01:29:25.389Z,6.80
2018-01-27T01:31:52.937Z,6.90
2018-01-27T01:34:20.481Z,6.80
2018-01-27T01:36:48.024Z,6.80
2018-01-27T01:39:17.007Z,6.80
2018-01-27T01:41:44.643Z,6.80
2018-01-27T01:44:17.719Z,6.70
2018-01-27T01:46:45.263Z,6.70
2018-01-27T01:49:23.744Z,6.60
2018-01-27T01:51:51.307Z,6.60
2018-01-27T01:54:18.829Z,6.60
2018-01-27T01:56:47.164Z,6.60
2018-01-27T01:59:15.604Z,6.60
2018-01-27T02:01:43.143Z,6.60
2018-01-27T02:04:10.654Z,6.60
2018-01-27T02:06:38.202Z,6.50
2018-01-27T02:09:05.792Z,6.60
2018-01-27T02:11:33.392Z,6.60
2018-01-27T02:14:01.023Z,6.60
2018-01-27T02:16:28.592Z,6.60
2018-01-27T02:18:56.126Z,6.70
2018-01-27T02:21:23.642Z,6.70
2018-01-27T02:23:51.960Z,6.60
2018-01-27T02:26:19.487Z,6.60
2018-01-27T02:28:47.046Z,6.60
2018-01-27T02:31:14.581Z,6.60
2018-01-27T02:33:42.195Z,6.60
2018-01-27T02:36:09.720Z,6.60
2018-01-27T02:38:38.031Z,6.60
2018-01-27T02:41:05.552Z,6.60
2018-01-27T02:43:33.194Z,6.60
2018-01-27T02:46:00.886Z,6.60
2018-01-27T02:48:28.532Z,6.60
2018-01-27T02:50:56.079Z,6.60
2018-01-27T02:53:23.608Z,6.60
2018-01-27T02:55:51.174Z,6.60
2018-01-27T02:58:18.792Z,6.50
2018-01-27T03:00:46.333Z,6.60
2018-01-27T03:03:13.871Z,6.50
2018-01-27T03:05:41.403Z,6.50
2018-01-27T03:08:08.936Z,6.50
2018-01-27T03:10:37.242Z,6.40
2018-01-27T03:13:04.788Z,6.40
2018-01-27T03:15:32.373Z,6.40
2018-01-27T03:18:00.672Z,6.40
2018-01-27T03:20:28.203Z,6.40
2018-01-27T03:22:55.719Z,6.40
2018-01-27T03:25:23.999Z,6.40
2018-01-27T03:27:51.533Z,6.40
2018-01-27T03:30:19.918Z,6.40
2018-01-27T03:32:47.462Z,6.30
2018-01-27T03:35:15.040Z,6.40
2018-01-27T03:37:42.575Z,6.30
2018-01-27T03:40:10.100Z,6.30
2018-01-27T03:42:37.639Z,6.30
2018-01-27T03:45:05.173Z,6.20
2018-01-27T03:47:32.807Z,6.20
2018-01-27T03:50:01.158Z,6.20
2018-01-27T03:52:28.962Z,6.20
2018-01-27T03:54:56.487Z,6.20
2018-01-27T03:57:24.021Z,6.20
2018-01-27T03:59:52.306Z,6.30
2018-01-27T04:02:20.723Z,6.30
2018-01-27T04:04:48.259Z,6.30
2018-01-27T04:07:15.869Z,6.30
2018-01-27T04:09:43.410Z,6.20
2018-01-27T04:12:10.927Z,6.20
2018-01-27T04:14:38.477Z,6.20
2018-01-27T04:17:06.007Z,6.20
2018-01-27T04:19:34.331Z,6.20
2018-01-27T04:22:01.856Z,6.20
2018-01-27T04:24:29.437Z,6.20
2018-01-27T04:26:56.961Z,6.20
2018-01-27T04:29:24.553Z,6.20
2018-01-27T04:31:52.068Z,6.30
2018-01-27T04:34:19.675Z,6.30
2018-01-27T04:36:47.230Z,6.30
2018-01-27T04:39:14.769Z,6.30
2018-01-27T04:41:42.282Z,6.20
2018-01-27T04:44:09.796Z,6.20
2018-01-27T04:46:37.347Z,6.10
2018-01-27T04:49:05.703Z,6.20
2018-01-27T04:51:34.014Z,6.10
2018-01-27T04:54:01.819Z,6.10
2018-01-27T04:56:29.379Z,6.10
2018-01-27T04:58:56.963Z,6.10
2018-01-27T05:01:24.505Z,6.10
2018-01-27T05:03:52.056Z,6.10
2018-01-27T05:06:19.588Z,6.10
2018-01-27T05:08:47.098Z,6.10
2018-01-27T05:11:16.376Z,6.10
2018-01-27T05:13:44.669Z,6.10
2018-01-27T05:16:12.200Z,6.10
2018-01-27T05:18:39.720Z,6.10
2018-01-27T05:21:08.031Z,6.10
2018-01-27T05:23:35.602Z,6.10
2018-01-27T05:26:03.325Z,6.10
2018-01-27T05:28:30.868Z,6.10
2018-01-27T05:30:59.243Z,6.10
2018-01-27T05:33:26.764Z,6.00
2018-01-27T05:35:54.285Z,6.10
2018-01-27T05:38:23.506Z,6.10
2018-01-27T05:40:51.023Z,6.10
2018-01-27T05:43:18.562Z,6.10
2018-01-27T05:45:46.083Z,6.10
2018-01-27T05:48:14.379Z,6.10
2018-01-27T05:50:41.899Z,6.10
2018-01-27T05:53:10.229Z,6.10
2018-01-27T05:55:37.859Z,6.00
2018-01-27T05:58:05.392Z,6.10
2018-01-27T06:00:32.940Z,6.10
2018-01-27T06:03:01.086Z,6.10
2018-01-27T06:05:28.644Z,6.00
2018-01-27T06:07:56.209Z,6.10
2018-01-27T06:10:23.720Z,6.00
2018-01-27T06:12:51.235Z,6.00
2018-01-27T06:15:19.641Z,6.10
2018-01-27T06:17:47.159Z,6.10
2018-01-27T06:20:14.691Z,6.10
2018-01-27T06:22:42.979Z,6.10
2018-01-27T06:25:10.509Z,6.10
2018-01-27T06:27:38.056Z,6.10
2018-01-27T06:30:05.589Z,6.20
2018-01-27T06:32:33.943Z,6.20
2018-01-27T06:35:02.444Z,6.20
2018-01-27T06:37:30.093Z,6.20
2018-01-27T06:39:58.427Z,6.20
2018-01-27T06:42:26.008Z,6.20
2018-01-27T06:44:53.552Z,6.20
2018-01-27T06:47:21.091Z,6.20
2018-01-27T06:49:48.607Z,6.20
2018-01-27T06:52:16.148Z,6.30
2018-01-27T06:54:44.431Z,6.30
2018-01-27T06:57:11.967Z,6.30
2018-01-27T06:59:39.488Z,6.30
2018-01-27T07:02:07.789Z,6.30
2018-01-27T07:04:35.363Z,6.30
2018-01-27T07:07:02.983Z,6.30
2018-01-27T07:09:30.803Z,6.40
2018-01-27T07:11:58.475Z,6.30
2018-01-27T07:14:26.068Z,6.30
2018-01-27T07:16:53.595Z,6.30
2018-01-27T07:19:21.155Z,6.20
2018-01-27T07:21:48.711Z,6.20
2018-01-27T07:24:16.997Z,6.30
2018-01-27T07:26:44.597Z,6.20
2018-01-27T07:29:12.933Z,6.20
2018-01-27T07:31:40.448Z,6.20
2018-01-27T07:34:08.943Z,6.20
2018-01-27T07:36:36.528Z,6.20
2018-01-27T07:39:04.121Z,6.20
2018-01-27T07:41:32.620Z,6.20
2018-01-27T07:44:00.211Z,6.10
2018-01-27T07:46:27.735Z,6.10
2018-01-27T07:48:56.039Z,6.10
2018-01-27T07:51:23.553Z,6.10
2018-01-27T07:53:51.956Z,6.10
2018-01-27T07:56:20.655Z,6.10
2018-01-27T07:58:48.187Z,6.10
2018-01-27T08:01:15.703Z,6.10
2018-01-27T08:03:43.256Z,6.10
2018-01-27T08:06:10.793Z,6.10
2018-01-27T08:08:38.307Z,6.10
2018-01-27T08:11:06.028Z,6.10
2018-01-27T08:13:34.479Z,6.10
2018-01-27T08:16:02.320Z,6.20
2018-01-27T08:18:29.861Z,6.10
2018-01-27T08:20:57.415Z,6.20
2018-01-27T08:23:24.952Z,6.20
2018-01-27T08:25:52.515Z,6.30
2018-01-27T08:28:20.048Z,6.30
2018-01-27T08:30:47.590Z,6.40
2018-01-27T08:33:15.120Z,6.30
2018-01-27T08:35:42.676Z,6.30
2018-01-27T08:38:10.184Z,6.30
2018-01-27T08:40:37.858Z,6.40
2018-01-27T08:43:05.375Z,6.40
2018-01-27T08:45:32.955Z,6.40
2018-01-27T08:48:00.903Z,6.40
2018-01-27T08:50:28.432Z,6.50
2018-01-27T08:52:55.996Z,6.60
2018-01-27T08:55:23.765Z,6.70
2018-01-27T08:57:51.311Z,6.70
2018-01-27T09:00:18.819Z,6.80
2018-01-27T09:02:46.477Z,6.90
2018-01-27T09:05:14.037Z,6.90
2018-01-27T09:07:41.565Z,7.10
2018-01-27T09:10:09.147Z,7.10
2018-01-27T09:12:37.451Z,7.20
2018-01-27T09:15:04.993Z,7.20
2018-01-27T09:17:32.696Z,7.20
2018-01-27T09:20:01.173Z,7.20
2018-01-27T09:22:28.719Z,7.20
2018-01-27T09:24:57.023Z,7.20
2018-01-27T09:27:24.531Z,7.20
2018-01-27T09:29:52.824Z,7.20
2018-01-27T09:32:20.339Z,7.20
2018-01-27T09:34:48.635Z,7.20
2018-01-27T09:37:16.144Z,7.20
2018-01-27T09:39:44.441Z,7.20
2018-01-27T09:42:12.013Z,7.20
2018-01-27T09:44:39.539Z,7.30
2018-01-27T09:47:07.052Z,7.30
2018-01-27T09:49:35.413Z,7.40
2018-01-27T09:52:03.216Z,7.40
2018-01-27T09:54:31.604Z,7.20
2018-01-27T09:56:59.128Z,7.30
2018-01-27T09:59:27.285Z,7.40
2018-01-27T10:01:54.849Z,7.40
2018-01-27T10:04:22.513Z,7.40
2018-01-27T10:06:51.946Z,7.30
2018-01-27T10:09:19.474Z,7.30
2018-01-27T10:11:47.010Z,7.30
2018-01-27T10:14:14.580Z,7.20
2018-01-27T10:16:42.131Z,7.20
2018-01-27T10:19:09.664Z,7.30
2018-01-27T10:21:37.192Z,7.30
2018-01-27T10:24:05.799Z,7.40
2018-01-27T10:26:34.260Z,7.40
2018-01-27T10:29:02.296Z,7.40
2018-01-27T10:31:30.675Z,7.40
2018-01-27T10:33:59.001Z,7.30
2018-01-27T10:36:26.590Z,7.30
2018-01-27T10:38:54.145Z,7.20
2018-01-27T10:41:21.671Z,7.10
2018-01-27T10:43:49.248Z,7.10
2018-01-27T10:46:18.443Z,7.10
2018-01-27T10:48:46.739Z,7.10
2018-01-27T10:51:14.250Z,7.10
2018-01-27T10:53:42.549Z,7.10
2018-01-27T10:56:10.071Z,7.10
2018-01-27T10:58:37.750Z,7.20
2018-01-27T11:01:06.028Z,7.50
2018-01-27T11:03:33.568Z,7.50
2018-01-27T11:06:01.785Z,7.40
2018-01-27T11:08:29.575Z,7.40
2018-01-27T11:10:57.095Z,7.30
2018-01-27T11:13:24.670Z,7.20
2018-01-27T11:15:52.196Z,7.10
2018-01-27T11:18:19.716Z,7.00
2018-01-27T11:20:47.261Z,7.00
2018-01-27T11:23:14.811Z,6.90
2018-01-27T11:25:42.343Z,7.00
2018-01-27T11:28:09.860Z,7.00
2018-01-27T11:30:37.462Z,7.00
2018-01-27T11:33:05.055Z,7.00
2018-01-27T11:35:34.094Z,6.90
2018-01-27T11:38:01.685Z,6.90
2018-01-27T11:40:29.993Z,6.90
2018-01-27T11:42:57.651Z,6.90
2018-01-27T11:45:25.396Z,6.90
2018-01-27T11:47:52.916Z,6.90
2018-01-27T11:50:20.459Z,6.90
2018-01-27T11:52:49.023Z,6.90
2018-01-27T11:55:16.698Z,6.90
2018-01-27T11:57:44.242Z,6.80
2018-01-27T12:00:11.756Z,6.70
2018-01-27T12:02:39.304Z,6.80
2018-01-27T12:05:06.824Z,6.90
2018-01-27T12:07:35.260Z,7.00
2018-01-27T12:10:03.292Z,7.00
2018-01-27T12:12:31.521Z,7.00
2018-01-27T12:14:59.159Z,7.10
2018-01-27T12:17:27.470Z,7.20
2018-01-27T12:19:55.110Z,7.20
2018-01-27T12:22:22.785Z,7.20
2018-01-27T12:24:51.079Z,7.20
2018-01-27T12:27:19.406Z,7.00
2018-01-27T12:29:47.719Z,7.10
2018-01-27T12:32:15.247Z,7.00
2018-01-27T12:34:43.604Z,7.00
2018-01-27T12:37:11.239Z,7.00
2018-01-27T12:39:38.799Z,7.10
2018-01-27T12:42:06.493Z,7.10
2018-01-27T12:44:36.267Z,7.10
2018-01-27T12:47:04.432Z,7.10
2018-01-27T12:49:33.560Z,7.10
2018-01-27T12:52:05.259Z,7.00
2018-01-27T12:54:33.567Z,7.00
2018-01-27T12:57:01.622Z,7.10
2018-01-27T12:59:29.160Z,7.20
2018-01-27T13:01:56.668Z,7.30
2018-01-27T13:07:07.383Z,7.40
2018-01-27T13:09:35.275Z,7.40
2018-01-27T13:12:03.039Z,7.50
2018-01-27T13:14:31.039Z,7.50
2018-01-27T13:16:58.653Z,7.50
2018-01-27T13:19:26.219Z,7.60
2018-01-27T13:21:55.550Z,7.60
2018-01-27T13:24:23.840Z,7.60
2018-01-27T13:26:51.903Z,7.60
2018-01-27T13:29:19.486Z,7.60
2018-01-27T13:31:47.091Z,7.60
2018-01-27T13:34:14.611Z,7.60
2018-01-27T13:36:42.250Z,7.60
2018-01-27T13:39:11.336Z,7.70
2018-01-27T13:41:38.983Z,7.70
2018-01-27T13:44:06.837Z,7.90
2018-01-27T13:46:35.452Z,8.00
2018-01-27T13:49:04.004Z,8.00
2018-01-27T13:51:32.597Z,7.70
2018-01-27T13:54:01.007Z,7.70
2018-01-27T13:56:29.339Z,7.50
2018-01-27T13:58:56.872Z,7.50
2018-01-27T14:01:25.182Z,7.40
2018-01-27T14:03:52.718Z,7.40
2018-01-27T14:06:20.240Z,7.40
2018-01-27T14:08:47.890Z,7.20
2018-01-27T14:11:15.433Z,7.20
2018-01-27T14:13:42.996Z,7.10
2018-01-27T14:16:10.519Z,7.10
2018-01-27T14:18:38.044Z,7.10
2018-01-27T14:21:05.671Z,7.10
2018-01-27T14:23:33.457Z,7.00
2018-01-27T14:26:00.998Z,7.00
2018-01-27T14:28:28.539Z,6.90
2018-01-27T14:30:56.076Z,6.90
2018-01-27T14:33:23.620Z,6.90
2018-01-27T14:35:51.924Z,6.90
2018-01-27T14:38:19.432Z,6.90
2018-01-27T14:40:46.981Z,6.90
2018-01-27T14:43:14.496Z,6.90
2018-01-27T14:45:42.048Z,7.00
2018-01-27T14:48:10.364Z,7.10
2018-01-27T14:50:37.900Z,7.10
2018-01-27T14:53:05.407Z,7.20
2018-01-27T14:55:33.911Z,7.20
2018-01-27T14:58:01.533Z,7.20
2018-01-27T15:00:29.104Z,7.30
2018-01-27T15:02:56.623Z,7.30
2018-01-27T15:05:24.158Z,7.30
2018-01-27T15:07:51.715Z,7.20
2018-01-27T15:10:19.260Z,7.30
2018-01-27T15:12:46.791Z,7.30
2018-01-27T15:15:14.372Z,7.20
2018-01-27T15:17:41.934Z,7.20
2018-01-27T15:20:09.454Z,7.20
2018-01-27T15:22:38.729Z,7.20
2018-01-27T15:25:06.248Z,7.20
2018-01-27T15:27:34.617Z,7.10
2018-01-27T15:30:02.305Z,7.10
2018-01-27T15:32:29.859Z,7.10
2018-01-27T15:34:57.407Z,7.00
2018-01-27T15:37:24.952Z,7.00
2018-01-27T15:39:52.463Z,7.10
2018-01-27T15:42:20.024Z,7.10
2018-01-27T15:44:47.555Z,7.20
2018-01-27T15:47:15.315Z,7.20
2018-01-27T15:49:42.867Z,7.20
2018-01-27T15:52:10.388Z,7.20
2018-01-27T15:54:39.968Z,7.20
2018-01-27T15:57:07.621Z,7.10
2018-01-27T15:59:35.176Z,7.20
2018-01-27T16:02:02.749Z,7.20
2018-01-27T16:04:30.386Z,7.30
2018-01-27T16:06:57.925Z,7.20
2018-01-27T16:09:26.371Z,7.10
2018-01-27T16:11:53.895Z,7.10
2018-01-27T16:14:21.476Z,7.00
2018-01-27T16:16:48.992Z,7.00
2018-01-27T16:19:16.543Z,6.90
2018-01-27T16:21:44.191Z,6.90
2018-01-27T16:24:11.702Z,6.80
2018-01-27T16:26:40.349Z,6.80
2018-01-27T16:29:07.892Z,6.80
2018-01-27T16:31:35.433Z,6.80
2018-01-27T16:34:02.988Z,6.80
2018-01-27T16:36:30.527Z,6.80
2018-01-27T16:38:58.469Z,6.70
2018-01-27T16:41:26.104Z,6.70
2018-01-27T16:43:53.615Z,6.70
2018-01-27T16:46:21.143Z,6.70
2018-01-27T16:48:49.791Z,6.70
2018-01-27T16:51:17.610Z,6.70
2018-01-27T16:53:45.183Z,6.70
2018-01-27T16:56:12.734Z,6.80
2018-01-27T16:58:40.258Z,6.60
2018-01-27T17:01:07.776Z,6.60
2018-01-27T17:03:35.323Z,6.60
2018-01-27T17:06:02.895Z,6.60
2018-01-27T17:08:30.544Z,6.60
2018-01-27T17:10:58.237Z,6.70
2018-01-27T17:13:25.771Z,6.70
2018-01-27T17:15:54.084Z,6.70
2018-01-27T17:18:21.631Z,6.70
2018-01-27T17:20:49.234Z,6.70
2018-01-27T17:23:16.768Z,6.70
2018-01-27T17:25:45.054Z,6.70
2018-01-27T17:28:12.612Z,6.70
2018-01-27T17:30:40.724Z,6.70
2018-01-27T17:33:09.152Z,6.60
2018-01-27T17:35:36.742Z,6.60
2018-01-27T17:38:05.019Z,6.60
2018-01-27T17:40:32.557Z,6.60
2018-01-27T17:43:00.841Z,6.60
2018-01-27T17:45:28.371Z,6.60
2018-01-27T17:47:55.933Z,6.60
2018-01-27T17:50:23.468Z,6.60
2018-01-27T17:52:51.000Z,6.60
2018-01-27T17:55:18.542Z,6.60
2018-01-27T17:57:46.063Z,6.50
2018-01-27T18:00:14.660Z,6.50
2018-01-27T18:02:42.945Z,6.40
2018-01-27T18:05:10.489Z,6.40
2018-01-27T18:07:38.030Z,6.40
2018-01-27T18:10:05.664Z,6.40
2018-01-27T18:12:33.187Z,6.40
2018-01-27T18:15:01.526Z,6.50
2018-01-27T18:17:29.044Z,6.50
2018-01-27T18:19:56.559Z,6.40
2018-01-27T18:22:24.091Z,6.50
2018-01-27T18:24:51.775Z,6.50
2018-01-27T18:27:19.335Z,6.50
2018-01-27T18:29:46.855Z,6.50
2018-01-27T18:32:14.489Z,6.50
2018-01-27T18:34:42.027Z,6.50
2018-01-27T18:37:09.575Z,6.50
2018-01-27T18:39:37.109Z,6.50
2018-01-27T18:42:04.639Z,6.50
2018-01-27T18:44:32.275Z,6.50
2018-01-27T18:46:59.889Z,6.50
2018-01-27T18:49:27.421Z,6.50
2018-01-27T18:51:54.988Z,6.40
2018-01-27T18:54:24.142Z,6.30
2018-01-27T18:56:51.656Z,6.30
2018-01-27T18:59:19.182Z,6.30
2018-01-27T19:01:47.475Z,6.20
2018-01-27T19:04:15.032Z,6.20
2018-01-27T19:06:43.360Z,6.60
2018-01-27T19:09:11.656Z,6.60
2018-01-27T19:11:39.345Z,6.60
2018-01-27T19:14:06.888Z,6.40
2018-01-27T19:16:34.442Z,6.30
2018-01-27T19:19:01.972Z,6.20
2018-01-27T19:21:29.484Z,6.10
2018-01-27T19:23:57.007Z,6.10
2018-01-27T19:26:24.531Z,6.10
2018-01-27T19:28:52.842Z,6.00
2018-01-27T19:31:20.355Z,6.00
2018-01-27T19:33:47.899Z,5.90
2018-01-27T19:36:16.085Z,5.80
2018-01-27T19:38:43.615Z,5.80
2018-01-27T19:41:11.357Z,5.70
2018-01-27T19:43:38.895Z,5.70
2018-01-27T19:46:06.491Z,5.60
2018-01-27T19:48:34.011Z,5.60
2018-01-27T19:51:01.547Z,5.60
2018-01-27T19:53:29.068Z,5.60
2018-01-27T19:55:56.614Z,5.60
2018-01-27T19:58:24.337Z,5.50
2018-01-27T20:00:52.645Z,5.50
2018-01-27T20:03:20.166Z,5.40
2018-01-27T20:05:47.711Z,5.50
2018-01-27T20:08:15.270Z,5.40
2018-01-27T20:10:44.120Z,5.40
2018-01-27T20:13:13.260Z,5.40
2018-01-27T20:15:40.782Z,5.40
2018-01-27T20:18:08.325Z,5.30
2018-01-27T20:20:35.982Z,5.30
2018-01-27T20:23:03.573Z,5.30
2018-01-27T20:25:31.120Z,5.30
2018-01-27T20:27:59.415Z,5.20
2018-01-27T20:30:26.927Z,5.20
2018-01-27T20:32:55.338Z,5.20
2018-01-27T20:35:22.893Z,5.20
2018-01-27T20:37:50.453Z,5.20
2018-01-27T20:40:17.980Z,5.20
2018-01-27T20:42:45.688Z,5.20
2018-01-27T20:45:13.278Z,5.20
2018-01-27T20:47:40.904Z,5.20
2018-01-27T20:50:08.440Z,5.20
2018-01-27T20:52:35.973Z,5.20
2018-01-27T20:55:03.532Z,5.30
2018-01-27T20:57:31.089Z,5.20
2018-01-27T20:59:58.697Z,5.20
2018-01-27T21:02:26.219Z,5.20
2018-01-27T21:04:54.526Z,5.20
2018-01-27T21:07:22.043Z,5.20
2018-01-27T21:09:50.343Z,5.20
2018-01-27T21:12:17.920Z,5.20
2018-01-27T21:14:45.452Z,5.20
2018-01-27T21:17:12.993Z,5.20
2018-01-27T21:19:40.563Z,5.20
2018-01-27T21:22:08.082Z,5.20
2018-01-27T21:24:35.616Z,5.20
2018-01-27T21:27:03.185Z,5.30
2018-01-27T21:29:30.746Z,5.30
2018-01-27T21:31:59.059Z,5.30
2018-01-27T21:34:26.604Z,5.30
2018-01-27T21:36:54.144Z,5.30
2018-01-27T21:39:21.680Z,5.30
2018-01-27T21:41:49.242Z,5.30
2018-01-27T21:44:16.777Z,5.30
2018-01-27T21:46:44.732Z,5.30
2018-01-27T21:49:12.272Z,5.20
2018-01-27T21:51:39.828Z,5.30
2018-01-27T21:54:07.347Z,5.20
2018-01-27T21:56:34.911Z,5.30
2018-01-27T21:59:02.449Z,5.30
2018-01-27T22:01:30.220Z,5.30
2018-01-27T22:03:57.750Z,5.30
2018-01-27T22:06:25.278Z,5.30
2018-01-27T22:08:52.807Z,5.40
2018-01-27T22:11:20.320Z,5.30
2018-01-27T22:13:48.610Z,5.40
2018-01-27T22:16:16.153Z,5.40
2018-01-27T22:18:43.692Z,5.40
2018-01-27T22:21:11.274Z,5.50
2018-01-27T22:23:38.812Z,5.50
2018-01-27T22:26:06.328Z,5.50
2018-01-27T22:28:33.859Z,5.50
2018-01-27T22:31:02.576Z,5.60
2018-01-27T22:33:30.131Z,5.60
2018-01-27T22:35:57.691Z,5.60
2018-01-27T22:38:25.249Z,5.60
2018-01-27T22:40:53.532Z,5.70
2018-01-27T22:43:21.832Z,5.90
2018-01-27T22:45:49.364Z,5.90
2018-01-27T22:48:16.875Z,6.00
2018-01-27T22:50:44.433Z,5.90
2018-01-27T22:53:12.715Z,5.80
2018-01-27T22:55:40.263Z,5.80
2018-01-27T22:58:07.783Z,5.80
2018-01-27T23:00:36.181Z,5.90
2018-01-27T23:03:03.754Z,5.90
2018-01-27T23:05:31.302Z,5.90
2018-01-27T23:07:58.917Z,5.90
2018-01-27T23:10:26.507Z,5.90
2018-01-27T23:12:54.820Z,5.90
2018-01-27T23:15:22.475Z,5.90
2018-01-27T23:17:50.001Z,6.00
2018-01-27T23:20:17.559Z,6.00
2018-01-27T23:22:45.076Z,6.00
2018-01-27T23:25:12.633Z,6.00
2018-01-27T23:27:40.156Z,6.00
2018-01-27T23:30:07.688Z,6.00
2018-01-27T23:32:35.972Z,6.00
2018-01-27T23:35:03.493Z,6.00
2018-01-27T23:37:31.803Z,6.10
2018-01-27T23:39:59.323Z,6.00
2018-01-27T23:42:26.892Z,6.00
2018-01-27T23:44:54.585Z,6.00
2018-01-27T23:47:22.934Z,6.00
2018-01-27T23:49:50.490Z,6.00
2018-01-27T23:52:18.036Z,6.00
2018-01-27T23:54:46.343Z,6.10
2018-01-27T23:57:13.885Z,6.10
2018-01-27T23:59:41.392Z,6.10
